Time;durP1;ratioP1;P1;durP2;ratioP2;P2;SDS_P1;SDS_P2;PMS_P1;PMS_P2;Temp;Humidity;BMP_temperature;BMP_pressure;BME280_temperature;BME280_humidity;BME280_pressure;Samples;Min_cycle;Max_cycle;Signal;HPM_P1;HPM_P2
2022/05/05 00:02:03;;;;;;;24.80;13.47;;;;;;;20.12;56.19;100081.83;1686483;84;21429;-55
2022/05/05 00:04:30;;;;;;;18.93;11.33;;;;;;;19.90;57.16;100079.22;1699266;82;21747;-55
2022/05/05 00:06:57;;;;;;;16.20;9.63;;;;;;;19.84;57.43;100090.78;1705605;83;21641;-57
2022/05/05 00:09:24;;;;;;;15.00;9.87;;;;;;;19.81;57.27;100096.56;1711825;82;21556;-62
2022/05/05 00:14:40;;;;;;;12.03;9.10;;;;;;;19.78;56.90;100105.02;1710603;83;21170;-62
2022/05/05 00:17:08;;;;;;;15.70;8.20;;;;;;;19.81;56.36;100109.28;1712730;82;21275;-58
2022/05/05 00:19:37;;;;;;;13.20;7.80;;;;;;;19.86;56.70;100101.92;1712056;82;21317;-55
2022/05/05 00:22:06;;;;;;;9.60;6.90;;;;;;;20.10;56.33;100107.20;1711847;83;21339;-56
2022/05/05 00:24:33;;;;;;;9.20;6.40;;;;;;;19.97;56.46;100107.61;1710721;83;21915;-56
2022/05/05 00:27:00;;;;;;;9.03;6.03;;;;;;;20.03;56.35;100106.59;1710827;83;21780;-63
2022/05/05 00:29:28;;;;;;;8.40;5.13;;;;;;;20.10;55.93;100112.48;1711660;83;21825;-55
2022/05/05 00:31:55;;;;;;;8.33;5.43;;;;;;;20.20;55.47;100113.66;1712524;83;21311;-54
2022/05/05 00:34:22;;;;;;;8.73;5.60;;;;;;;20.16;55.00;100120.77;1711899;83;21384;-55
2022/05/05 00:36:51;;;;;;;11.23;5.50;;;;;;;20.24;54.41;100120.05;1712222;82;21331;-61
2022/05/05 00:39:18;;;;;;;8.53;4.87;;;;;;;20.09;54.54;100120.69;1712655;82;21574;-56
2022/05/05 00:41:47;;;;;;;8.50;5.67;;;;;;;20.16;54.34;100116.00;1702058;83;21284;-55
2022/05/05 00:44:14;;;;;;;8.73;5.47;;;;;;;20.28;53.43;100123.79;1711721;83;21321;-56
2022/05/05 00:46:51;;;;;;;7.33;4.53;;;;;;;20.31;52.83;100128.06;1712509;82;21266;-55
2022/05/05 00:49:18;;;;;;;9.47;5.00;;;;;;;20.07;52.61;100116.95;1712780;82;22139;-55
2022/05/05 00:51:45;;;;;;;12.70;4.80;;;;;;;20.02;51.82;100134.11;1701477;83;21134;-56
2022/05/05 00:54:13;;;;;;;10.33;4.90;;;;;;;20.15;50.38;100130.26;1712648;82;21268;-64
2022/05/05 00:56:40;;;;;;;7.30;4.27;;;;;;;20.16;48.93;100130.03;1711840;82;21342;-55
2022/05/05 00:59:08;;;;;;;9.40;4.23;;;;;;;20.18;46.76;100135.86;1683430;83;21143;-56
2022/05/05 01:01:36;;;;;;;9.97;4.83;;;;;;;19.92;46.06;100149.33;1714304;82;21286;-55
2022/05/05 01:04:07;;;;;;;9.93;4.67;;;;;;;19.91;45.21;100149.59;1713099;82;21265;-58
2022/05/05 01:06:34;;;;;;;9.78;4.70;;;;;;;19.77;44.82;100146.50;1672835;81;21255;-54
2022/05/05 01:09:02;;;;;;;9.03;4.63;;;;;;;19.56;44.89;100156.02;1719212;81;20985;-55
2022/05/05 01:11:30;;;;;;;8.90;4.20;;;;;;;19.60;44.53;100151.04;1696999;83;22465;-55
2022/05/05 01:13:57;;;;;;;8.30;4.37;;;;;;;19.55;44.25;100158.39;1719444;81;21797;-55
2022/05/05 01:16:25;;;;;;;10.80;5.00;;;;;;;19.53;44.15;100161.78;1719393;81;21177;-57
2022/05/05 01:18:55;;;;;;;7.63;4.90;;;;;;;19.45;44.10;100166.97;1718327;83;21825;-55
2022/05/05 01:21:22;;;;;;;11.47;5.57;;;;;;;19.29;44.41;100164.37;1717489;83;21354;-56
2022/05/05 01:23:50;;;;;;;10.17;5.27;;;;;;;19.36;44.28;100170.29;1720535;81;21380;-55
2022/05/05 01:29:03;;;;;;;15.53;5.50;;;;;;;19.12;44.60;100182.34;1678628;84;21862;-56
2022/05/05 01:31:30;;;;;;;12.63;5.37;;;;;;;19.10;44.69;100195.00;1685537;84;21633;-56
2022/05/05 01:33:57;;;;;;;10.47;5.40;;;;;;;19.23;44.50;100198.36;1686110;84;21314;-57
2022/05/05 01:36:25;;;;;;;10.33;4.70;;;;;;;19.16;44.42;100201.95;1687473;82;21463;-57
2022/05/05 01:38:53;;;;;;;7.63;4.47;;;;;;;19.09;44.32;100209.76;1686071;84;21384;-56
2022/05/05 01:41:21;;;;;;;8.53;4.07;;;;;;;19.05;44.27;100220.00;1686562;82;21770;-56
2022/05/05 01:43:49;;;;;;;5.17;2.83;;;;;;;18.96;44.21;100213.53;1686153;84;21316;-56
2022/05/05 01:46:16;;;;;;;8.30;2.90;;;;;;;19.03;43.66;100221.30;1658119;85;21378;-57
2022/05/05 01:48:43;;;;;;;6.57;3.17;;;;;;;18.90;43.31;100230.31;1659543;85;21429;-58
2022/05/05 01:51:11;;;;;;;6.63;3.10;;;;;;;18.87;43.15;100238.74;1686337;84;22504;-56
2022/05/05 01:53:38;;;;;;;10.60;3.87;;;;;;;18.85;43.15;100238.96;1657203;85;21269;-55
2022/05/05 01:56:09;;;;;;;14.70;4.20;;;;;;;18.81;43.26;100239.16;1685699;84;21739;-63
2022/05/05 01:58:38;;;;;;;9.47;5.57;;;;;;;18.85;43.25;100234.20;1685171;84;21290;-56
2022/05/05 02:01:09;;;;;;;10.53;4.77;;;;;;;18.78;43.38;100236.98;1685258;84;21690;-58
2022/05/05 02:03:36;;;;;;;10.77;4.27;;;;;;;18.83;43.38;100242.90;1656478;86;21444;-57
2022/05/05 02:06:03;;;;;;;6.03;3.17;;;;;;;18.84;43.22;100245.29;1661209;84;21201;-58
2022/05/05 02:08:30;;;;;;;6.20;3.00;;;;;;;18.70;43.00;100246.59;1663064;84;22075;-61
2022/05/05 02:10:58;;;;;;;10.67;3.30;;;;;;;18.76;42.73;100252.80;1685813;84;21432;-58
2022/05/05 02:13:25;;;;;;;8.43;3.07;;;;;;;18.77;42.56;100261.00;1657122;85;21123;-56
2022/05/05 02:15:53;;;;;;;6.87;2.70;;;;;;;18.62;42.60;100268.09;1685340;84;21340;-56
2022/05/05 02:18:20;;;;;;;10.27;2.63;;;;;;;18.63;42.36;100272.33;1655944;86;21364;-56
2022/05/05 02:20:48;;;;;;;7.50;2.20;;;;;;;18.58;42.19;100274.36;1686373;84;21267;-55
2022/05/05 02:23:15;;;;;;;7.73;2.80;;;;;;;18.42;42.21;100281.19;1656432;86;21340;-57
2022/05/05 02:25:42;;;;;;;9.23;2.45;;;;;;;18.42;42.26;100283.03;1686538;82;21412;-55
2022/05/05 02:28:09;;;;;;;5.17;2.17;;;;;;;18.47;42.03;100277.83;1685958;84;21229;-56
2022/05/05 02:30:37;;;;;;;6.87;1.97;;;;;;;18.45;42.09;100290.48;1658078;85;21390;-63
2022/05/05 02:33:04;;;;;;;5.27;2.00;;;;;;;18.16;42.30;100289.09;1685908;84;21338;-56
2022/05/05 02:35:32;;;;;;;5.33;2.50;;;;;;;18.18;42.29;100303.36;1656371;85;21251;-54
2022/05/05 02:40:45;;;;;;;7.03;2.50;;;;;;;17.97;42.66;100308.73;1658066;85;21810;-56
2022/05/05 02:43:13;;;;;;;4.57;2.00;;;;;;;18.08;42.24;100313.20;1699048;83;21770;-57
2022/05/05 02:45:42;;;;;;;4.23;2.27;;;;;;;18.07;42.19;100323.96;1710712;83;21982;-54
2022/05/05 02:48:09;;;;;;;9.90;2.37;;;;;;;18.34;41.59;100325.09;1711500;83;21263;-55
2022/05/05 02:50:36;;;;;;;4.40;2.30;;;;;;;18.44;41.26;100327.12;1710462;83;21647;-58
2022/05/05 02:54:47;;;;;;;4.07;1.97;;;;;;;18.33;41.11;100333.23;1709754;83;21294;-57
2022/05/05 02:55:33;;;;;;;5.53;2.20;;;;;;;18.26;41.00;100331.23;1711874;82;21635;-56
2022/05/05 02:58:02;;;;;;;4.05;1.70;;;;;;;18.24;40.94;100345.46;1712062;83;21201;-55
2022/05/05 03:00:29;;;;;;;7.13;2.43;;;;;;;18.19;40.85;100350.64;1710195;83;21499;-64
2022/05/05 03:02:57;;;;;;;4.77;2.30;;;;;;;18.03;41.10;100357.91;1710432;83;21700;-56
2022/05/05 03:05:25;;;;;;;6.07;2.10;;;;;;;18.15;40.77;100351.34;1716716;82;21543;-55
2022/05/05 03:07:52;;;;;;;11.25;2.47;;;;;;;18.27;40.58;100356.60;1710473;83;21267;-56
2022/05/05 03:10:19;;;;;;;3.65;1.60;;;;;;;18.17;40.44;100361.12;1711908;83;20935;-57
2022/05/05 03:12:46;;;;;;;4.17;1.95;;;;;;;18.23;40.30;100366.81;1710882;83;20987;-55
2022/05/05 03:15:15;;;;;;;4.25;1.87;;;;;;;18.19;40.00;100380.98;1710986;83;21072;-56
2022/05/05 03:17:42;;;;;;;4.80;1.70;;;;;;;18.21;39.92;100382.06;1710426;83;21768;-55
2022/05/05 03:20:10;;;;;;;4.03;1.80;;;;;;;18.10;39.76;100379.70;1711343;83;21263;-55
2022/05/05 03:22:37;;;;;;;6.72;2.05;;;;;;;18.30;39.58;100386.49;1711216;83;21121;-55
2022/05/05 03:25:06;;;;;;;4.33;1.40;;;;;;;18.77;38.87;100399.64;1710142;83;21471;-60
2022/05/05 03:27:39;;;;;;;4.33;1.63;;;;;;;19.17;38.13;100399.12;1711304;83;22170;-56
2022/05/05 03:30:07;;;;;;;3.47;1.37;;;;;;;19.97;36.81;100399.96;1711283;83;21797;-55
2022/05/05 03:32:34;;;;;;;6.97;2.00;;;;;;;20.54;35.71;100399.73;1711834;83;21202;-55
2022/05/05 03:35:02;;;;;;;5.17;1.67;;;;;;;21.47;33.21;100400.24;1711810;83;21258;-63
2022/05/05 03:37:32;;;;;;;4.77;1.40;;;;;;;21.45;32.94;100389.90;1712218;83;22077;-56
2022/05/05 03:40:00;;;;;;;6.93;1.43;;;;;;;21.71;31.98;100406.04;1711656;83;21476;-55
2022/05/05 03:42:27;;;;;;;2.93;1.40;;;;;;;21.71;31.98;100406.04;1711706;83;22216;-56
2022/05/05 03:44:55;;;;;;;5.80;1.30;;;;;;;22.09;31.53;100396.50;1712113;83;21623;-63
2022/05/05 03:47:23;;;;;;;3.87;1.60;;;;;;;22.20;31.20;100405.36;1709740;83;21616;-56
2022/05/05 03:49:50;;;;;;;5.27;1.30;;;;;;;22.29;31.09;100416.30;1710985;83;21033;-55
2022/05/05 03:52:18;;;;;;;4.67;1.27;;;;;;;22.44;30.52;100420.89;1711054;83;21072;-56
2022/05/05 03:54:45;;;;;;;4.80;1.90;;;;;;;22.63;30.05;100435.88;1700998;83;21183;-56
2022/05/05 03:57:12;;;;;;;3.20;1.40;;;;;;;22.70;29.98;100431.13;1711201;83;21546;-63
2022/05/05 03:59:39;;;;;;;6.40;1.93;;;;;;;22.94;29.72;100428.84;1711535;83;21492;-56
2022/05/05 04:02:07;;;;;;;4.37;1.77;;;;;;;23.27;28.98;100431.61;1711191;83;21108;-55
2022/05/05 04:04:35;;;;;;;6.33;1.20;;;;;;;23.57;28.52;100434.05;1711541;83;21026;-57
2022/05/05 04:07:03;;;;;;;4.07;1.73;;;;;;;23.64;28.25;100443.87;1722249;83;21316;-64
2022/05/05 04:09:30;;;;;;;7.70;1.60;;;;;;;23.85;27.64;100438.88;1721401;83;22102;-57
2022/05/05 04:11:58;;;;;;;7.57;1.90;;;;;;;23.82;27.42;100446.05;1723908;81;21033;-57
2022/05/05 04:14:26;;;;;;;8.63;1.60;;;;;;;23.63;27.23;100447.61;1722695;81;20981;-55
2022/05/05 04:16:53;;;;;;;5.97;1.93;;;;;;;23.67;27.21;100452.70;1723259;81;21463;-58
2022/05/05 04:19:21;;;;;;;3.10;1.50;;;;;;;23.61;27.19;100463.06;1721128;83;21269;-57
2022/05/05 04:21:48;;;;;;;5.67;1.67;;;;;;;23.74;26.97;100466.02;1722631;83;20976;-57
2022/05/05 04:24:16;;;;;;;5.53;1.43;;;;;;;23.71;26.96;100461.21;1723602;81;21012;-56
2022/05/05 04:26:44;;;;;;;12.13;2.07;;;;;;;23.83;27.42;100466.81;1723947;81;21656;-56
2022/05/05 04:29:11;;;;;;;4.50;1.57;;;;;;;24.22;26.76;100470.53;1721714;83;21000;-62
2022/05/05 04:31:38;;;;;;;5.93;1.30;;;;;;;24.48;26.12;100459.88;1721388;83;21780;-58
2022/05/05 04:34:06;;;;;;;4.90;1.23;;;;;;;24.59;25.89;100477.97;1723212;81;21044;-55
2022/05/05 04:36:35;;;;;;;9.00;1.80;;;;;;;24.73;25.58;100470.44;1722904;81;21032;-56
2022/05/05 04:39:04;;;;;;;5.57;1.50;;;;;;;24.51;25.30;100470.00;1722848;81;20929;-65
2022/05/05 04:41:32;;;;;;;3.80;1.50;;;;;;;24.31;25.64;100481.98;1721411;83;21080;-55
2022/05/05 04:43:59;;;;;;;5.57;2.00;;;;;;;24.47;25.47;100475.06;1722315;83;21166;-57
2022/05/05 04:46:27;;;;;;;5.40;2.00;;;;;;;24.60;24.84;100470.23;1721620;83;21483;-56
2022/05/05 04:48:54;;;;;;;4.27;1.87;;;;;;;24.64;24.91;100489.94;1722663;83;20997;-60
2022/05/05 04:51:21;;;;;;;6.30;2.00;;;;;;;24.54;25.07;100481.96;1722154;81;20969;-57
2022/05/05 04:53:48;;;;;;;5.27;1.60;;;;;;;24.77;24.76;100484.02;1723639;81;21090;-57
2022/05/05 04:56:16;;;;;;;4.33;1.70;;;;;;;24.93;24.26;100496.79;1723754;81;21173;-60
2022/05/05 04:58:44;;;;;;;6.10;2.00;;;;;;;24.91;24.29;100495.71;1722597;83;20894;-58
2022/05/05 05:01:11;;;;;;;3.80;1.80;;;;;;;24.93;24.04;100500.79;1721794;83;20981;-66
2022/05/05 05:03:42;;;;;;;4.07;1.87;;;;;;;25.02;23.94;100503.14;1723127;81;21539;-58
2022/05/05 05:06:08;;;;;;;5.33;2.33;;;;;;;25.51;23.94;100495.72;1722957;81;21039;-57
2022/05/05 05:08:37;;;;;;;8.77;2.27;;;;;;;25.64;23.09;100500.97;1724597;81;21158;-54
2022/05/05 05:11:04;;;;;;;4.97;2.10;;;;;;;25.61;22.50;100496.17;1722556;83;21008;-60
2022/05/05 05:13:31;;;;;;;6.30;2.43;;;;;;;25.33;22.60;100510.49;1722224;81;20969;-55
2022/05/05 05:15:58;;;;;;;10.17;2.23;;;;;;;25.20;22.41;100513.77;1722123;83;21984;-56
2022/05/05 05:18:26;;;;;;;10.20;2.83;;;;;;;24.98;22.52;100510.89;1721785;83;20961;-55
2022/05/05 05:20:53;;;;;;;6.77;2.20;;;;;;;24.93;22.77;100510.92;1723108;81;21220;-55
2022/05/05 05:23:21;;;;;;;4.57;1.97;;;;;;;24.92;22.43;100525.30;1722256;81;22353;-64
2022/05/05 05:25:48;;;;;;;7.03;2.33;;;;;;;24.88;22.52;100530.92;1724180;81;20991;-57
2022/05/05 05:28:16;;;;;;;7.17;2.57;;;;;;;24.94;22.04;100536.51;1723392;81;21444;-58
2022/05/05 05:30:43;;;;;;;7.67;2.10;;;;;;;24.71;22.60;100533.11;1722220;83;21130;-58
2022/05/05 05:33:11;;;;;;;4.40;1.87;;;;;;;25.08;22.35;100535.91;1723787;81;21164;-57
2022/05/05 05:35:38;;;;;;;5.10;2.07;;;;;;;25.34;22.15;100538.77;1723620;81;20921;-59
2022/05/05 05:38:06;;;;;;;8.93;2.40;;;;;;;24.37;22.94;100541.66;1722522;83;21425;-58
2022/05/05 05:40:33;;;;;;;5.70;2.13;;;;;;;25.16;22.15;100544.74;1724606;81;21060;-55
2022/05/05 05:43:00;;;;;;;4.97;1.73;;;;;;;25.48;21.63;100545.64;1722570;83;21055;-56
2022/05/05 05:45:27;;;;;;;5.30;2.00;;;;;;;24.33;21.98;100558.45;1722509;81;21268;-60
2022/05/05 05:47:54;;;;;;;6.43;2.90;;;;;;;23.93;21.92;100566.13;1722089;83;21497;-56
2022/05/05 05:50:22;;;;;;;5.87;2.10;;;;;;;23.69;22.86;100560.50;1723120;81;21111;-58
2022/05/05 05:52:50;;;;;;;6.43;2.17;;;;;;;24.85;22.14;100557.32;1722415;83;21013;-56
2022/05/05 05:55:18;;;;;;;5.10;2.07;;;;;;;24.46;21.85;100558.72;1722269;83;21023;-60
2022/05/05 05:57:45;;;;;;;8.23;2.73;;;;;;;25.14;21.49;100554.88;1711380;83;22448;-56
2022/05/05 06:00:13;;;;;;;10.60;4.27;;;;;;;25.51;20.60;100559.78;1722575;83;21013;-57
2022/05/05 06:05:26;;;;;;;12.73;4.67;;;;;;;25.40;20.74;100563.58;1723097;81;21052;-60
2022/05/05 06:08:02;;;;;;;9.23;2.97;;;;;;;25.65;20.24;100572.00;1723303;81;22025;-57
2022/05/05 06:10:31;;;;;;;5.87;1.73;;;;;;;25.39;20.17;100567.32;1723979;81;21252;-56
2022/05/05 06:12:58;;;;;;;9.37;3.73;;;;;;;25.10;20.68;100587.16;1722342;83;21525;-56
2022/05/05 06:15:25;;;;;;;7.20;2.93;;;;;;;25.03;20.95;100574.08;1723184;81;20985;-57
2022/05/05 06:17:53;;;;;;;9.33;2.80;;;;;;;25.41;20.32;100576.63;1722118;83;21059;-56
2022/05/05 06:20:21;;;;;;;8.43;3.23;;;;;;;25.55;20.12;100577.38;1721751;83;20985;-57
2022/05/05 06:22:50;;;;;;;4.47;1.60;;;;;;;25.53;19.91;100578.18;1722107;83;21120;-54
2022/05/05 06:25:19;;;;;;;5.93;2.20;;;;;;;25.46;19.85;100580.63;1721959;81;20973;-59
2022/05/05 06:27:46;;;;;;;6.77;2.77;;;;;;;25.47;20.27;100578.22;1711569;83;21477;-54
2022/05/05 06:30:14;;;;;;;4.83;1.73;;;;;;;25.75;20.32;100589.81;1723137;81;20993;-56
2022/05/05 06:32:41;;;;;;;6.00;2.30;;;;;;;25.94;20.46;100587.58;1723539;81;21037;-56
2022/05/05 06:35:10;;;;;;;5.57;2.00;;;;;;;26.00;20.27;100592.91;1723922;81;21266;-57
2022/05/05 06:37:38;;;;;;;6.43;1.80;;;;;;;25.79;20.08;100594.35;1721774;81;21080;-58
2022/05/05 06:40:08;;;;;;;7.57;2.43;;;;;;;25.67;19.98;100596.53;1722976;81;21448;-55
2022/05/05 06:42:36;;;;;;;6.43;2.37;;;;;;;25.89;19.57;100595.64;1722287;81;20994;-55
2022/05/05 06:45:05;;;;;;;3.57;1.70;;;;;;;25.96;19.17;100608.15;1721985;83;21060;-63
2022/05/05 06:47:32;;;;;;;6.67;1.93;;;;;;;25.78;19.39;100612.80;1720794;83;21247;-56
2022/05/05 06:50:00;;;;;;;4.23;1.70;;;;;;;25.90;19.51;100614.58;1723358;81;21292;-55
2022/05/05 06:52:28;;;;;;;6.30;1.43;;;;;;;26.12;19.20;100612.84;1722600;81;21076;-55
2022/05/05 06:54:55;;;;;;;5.70;1.50;;;;;;;26.19;19.27;100623.23;1722359;83;20989;-55
2022/05/05 06:57:23;;;;;;;10.83;2.13;;;;;;;26.41;19.62;100620.92;1721903;81;21123;-55
2022/05/05 06:59:50;;;;;;;7.03;2.30;;;;;;;26.73;19.80;100614.25;1721283;83;22347;-57
2022/05/05 07:02:17;;;;;;;4.70;1.77;;;;;;;27.25;18.87;100620.70;1722221;81;21973;-56
2022/05/05 07:07:31;;;;;;;5.13;1.87;;;;;;;27.73;17.53;100626.52;1719496;81;21542;-63
2022/05/05 07:12:45;;;;;;;4.23;1.60;;;;;;;27.39;17.91;100636.87;1719286;81;21172;-57
2022/05/05 07:15:12;;;;;;;4.70;1.70;;;;;;;27.40;17.99;100640.59;1718253;83;21482;-58
2022/05/05 07:17:39;;;;;;;8.23;2.10;;;;;;;27.29;18.25;100644.47;1717264;83;21044;-57
2022/05/05 07:20:09;;;;;;;8.77;2.37;;;;;;;27.28;17.91;100641.55;1718281;83;21230;-58
2022/05/05 07:22:36;;;;;;;4.20;1.33;;;;;;;27.51;17.85;100636.47;1720682;81;21478;-60
2022/05/05 07:25:04;;;;;;;4.23;1.40;;;;;;;27.98;17.43;100637.47;1718938;81;21652;-57
2022/05/05 07:27:31;;;;;;;6.03;1.30;;;;;;;28.06;16.77;100635.47;1717739;83;20957;-64
2022/05/05 07:29:58;;;;;;;4.70;1.60;;;;;;;28.03;16.93;100641.41;1719776;81;21426;-57
2022/05/05 07:32:26;;;;;;;5.07;1.30;;;;;;;28.13;17.11;100635.91;1718087;83;21537;-57
2022/05/05 07:34:53;;;;;;;3.60;1.63;;;;;;;28.36;16.58;100648.40;1718904;81;21064;-63
2022/05/05 07:37:22;;;;;;;5.70;1.97;;;;;;;28.54;16.44;100640.11;1717967;83;21160;-58
2022/05/05 07:39:49;;;;;;;7.07;1.60;;;;;;;28.31;16.40;100641.79;1720693;81;20981;-55
2022/05/05 07:42:17;;;;;;;6.40;2.17;;;;;;;28.16;16.63;100638.01;1718227;83;21036;-57
2022/05/05 07:44:44;;;;;;;5.70;2.03;;;;;;;27.98;16.79;100646.84;1685668;84;21014;-56
2022/05/05 07:47:11;;;;;;;4.83;2.50;;;;;;;27.55;16.97;100656.23;1686308;84;21133;-55
2022/05/05 07:49:39;;;;;;;3.60;1.73;;;;;;;27.05;17.26;100649.80;1656164;86;21812;-57
2022/05/05 07:52:07;;;;;;;5.13;2.10;;;;;;;26.65;18.25;100650.42;1685864;84;21082;-56
2022/05/05 07:54:43;;;;;;;5.33;2.07;;;;;;;26.44;18.31;100657.80;1655937;86;21074;-58
2022/05/05 07:57:13;;;;;;;3.83;1.73;;;;;;;26.17;18.55;100652.88;1686412;84;21531;-55
2022/05/05 07:59:42;;;;;;;6.37;2.10;;;;;;;26.39;18.83;100656.48;1657167;85;21375;-56
2022/05/05 08:02:13;;;;;;;4.53;1.93;;;;;;;25.81;18.77;100654.18;1686003;84;21251;-56
2022/05/05 08:04:38;;;;;;;13.63;1.97;;;;;;;26.31;18.20;100652.27;1684709;84;21114;-55
2022/05/05 08:07:05;;;;;;;6.70;2.20;;;;;;;26.72;18.04;100652.78;1693146;84;21814;-56
2022/05/05 08:09:33;;;;;;;6.83;2.03;;;;;;;27.05;18.10;100663.69;1699350;84;21648;-65
2022/05/05 08:12:01;;;;;;;4.73;1.37;;;;;;;27.32;17.79;100655.16;1699537;84;21048;-55
2022/05/05 08:14:28;;;;;;;6.13;1.90;;;;;;;27.40;17.59;100653.98;1699392;84;21154;-57
2022/05/05 08:17:15;;;;;;;6.83;1.30;;;;;;;27.21;17.47;100657.69;1699197;84;21018;-54
2022/05/05 08:19:43;;;;;;;5.30;1.67;;;;;;;26.71;17.82;100665.91;1699950;83;21062;-55
2022/05/05 08:22:10;;;;;;;2.97;1.27;;;;;;;26.40;18.36;100675.98;1700749;83;21442;-58
2022/05/05 08:30:10;;;;;;;6.63;2.10;;;;;;;27.47;17.83;100664.91;1701252;83;21451;-55
2022/05/05 08:32:37;;;;;;;4.17;1.20;;;;;;;27.37;17.74;100659.91;1700323;83;21153;-56
2022/05/05 08:35:05;;;;;;;4.70;1.80;;;;;;;27.60;17.65;100660.97;1699290;83;21064;-57
2022/05/05 08:37:33;;;;;;;4.73;1.50;;;;;;;27.75;17.49;100631.88;1701395;83;21046;-56
2022/05/05 08:40:00;;;;;;;7.07;1.50;;;;;;;28.08;17.53;100654.20;1699747;83;21252;-56
2022/05/05 08:42:27;;;;;;;5.77;1.27;;;;;;;27.95;17.55;100659.48;1701387;83;21388;-57
2022/05/05 08:44:54;;;;;;;6.67;1.50;;;;;;;27.97;17.39;100653.30;1700329;83;21109;-55
2022/05/05 08:47:23;;;;;;;4.63;1.73;;;;;;;28.06;17.23;100659.59;1701164;83;21007;-56
2022/05/05 08:49:52;;;;;;;4.20;1.53;;;;;;;28.05;17.46;100659.34;1701140;83;21093;-62
2022/05/05 08:52:48;;;;;;;4.37;1.33;;;;;;;28.03;17.51;100667.66;1700381;83;21576;-56
2022/05/05 08:55:17;;;;;;;4.00;1.80;;;;;;;28.01;17.30;100651.09;1700281;83;21547;-55
2022/05/05 08:57:44;;;;;;;6.23;1.40;;;;;;;27.91;17.09;100661.94;1689348;83;20989;-55
2022/05/05 09:00:13;;;;;;;6.47;1.53;;;;;;;27.52;17.23;100671.52;1700565;83;21598;-61
2022/05/05 09:02:41;;;;;;;3.50;1.33;;;;;;;27.07;17.79;100667.69;1700664;83;21069;-55
2022/05/05 09:05:09;;;;;;;4.70;1.53;;;;;;;27.37;17.80;100663.13;1701573;83;22276;-56
2022/05/05 09:07:51;;;;;;;3.70;1.30;;;;;;;27.51;17.63;100656.55;1700421;83;21073;-59
2022/05/05 09:10:20;;;;;;;3.97;1.53;;;;;;;27.65;17.78;100671.63;1700867;83;21336;-58
2022/05/05 09:13:01;;;;;;;6.67;2.20;;;;;;;27.48;17.43;100679.88;1685861;83;21073;-55
2022/05/05 09:15:33;;;;;;;6.13;2.00;;;;;;;27.02;17.71;100688.36;1696626;83;21121;-66
2022/05/05 09:18:20;;;;;;;6.50;2.07;;;;;;;26.79;18.20;100673.31;1706546;82;21786;-58
2022/05/05 09:20:49;;;;;;;6.13;1.87;;;;;;;27.01;18.50;100682.73;1744423;81;21285;-54
2022/05/05 09:26:09;;;;;;;6.40;2.13;;;;;;;26.98;18.50;100692.69;1644199;81;21051;-57
2022/05/05 09:28:36;;;;;;;6.03;2.50;;;;;;;26.89;18.63;100685.78;1745200;81;20960;-57
2022/05/05 09:31:07;;;;;;;5.93;1.80;;;;;;;27.18;18.85;100680.45;1743584;82;22424;-65
2022/05/05 09:33:41;;;;;;;3.08;1.75;;;;;;;27.33;18.03;100678.95;1744682;82;21390;-58
2022/05/05 09:36:11;;;;;;;6.33;1.80;;;;;;;27.37;18.39;100681.32;1744865;81;21303;-56
2022/05/05 09:39:00;;;;;;;4.97;2.33;;;;;;;27.51;18.37;100688.14;1744598;81;20995;-62
2022/05/05 09:41:28;;;;;;;6.57;1.83;;;;;;;27.76;17.94;100687.05;1744217;82;21062;-56
2022/05/05 09:43:57;;;;;;;4.60;1.53;;;;;;;27.48;18.20;100683.89;1744798;81;21220;-55
2022/05/05 09:46:30;;;;;;;7.77;1.77;;;;;;;27.89;18.13;100689.58;1743757;81;21102;-55
2022/05/05 09:49:13;;;;;;;8.40;2.27;;;;;;;28.17;17.47;100689.18;1757048;81;21476;-55
2022/05/05 09:57:42;;;;;;;3.40;1.70;;;;;;;27.76;18.01;100675.53;1757183;81;21376;-57
2022/05/05 10:05:42;;;;;;;4.53;1.50;;;;;;;27.38;18.26;100674.08;1756467;81;21145;-56
2022/05/05 10:08:09;;;;;;;4.93;1.70;;;;;;;27.31;17.76;100675.75;1757314;81;21066;-56
2022/05/05 10:10:37;;;;;;;5.17;1.77;;;;;;;26.84;18.01;100670.58;1756863;81;21246;-62
2022/05/05 10:13:05;;;;;;;2.97;1.40;;;;;;;26.66;18.33;100692.67;1757529;81;21438;-57
2022/05/05 10:15:33;;;;;;;5.33;1.60;;;;;;;26.84;18.27;100685.84;1757336;81;21042;-57
2022/05/05 10:18:03;;;;;;;4.17;1.50;;;;;;;26.96;18.14;100673.42;1757132;81;21297;-57
2022/05/05 10:20:32;;;;;;;6.17;1.37;;;;;;;27.22;18.05;100677.47;1752946;81;20990;-57
2022/05/05 10:23:14;;;;;;;3.73;1.33;;;;;;;27.31;17.82;100681.66;1751690;81;21457;-62
2022/05/05 10:25:41;;;;;;;4.10;1.20;;;;;;;27.50;17.57;100677.69;1752525;81;21695;-57
2022/05/05 10:28:46;;;;;;;3.30;1.33;;;;;;;27.47;17.62;100683.64;1752979;81;21046;-58
2022/05/05 10:31:15;;;;;;;3.17;1.50;;;;;;;27.70;17.39;100678.80;1752664;81;22062;-59
2022/05/05 10:34:06;;;;;;;3.77;1.90;;;;;;;27.67;17.32;100686.61;1747175;81;21086;-58
2022/05/05 10:36:35;;;;;;;7.10;1.80;;;;;;;27.33;17.81;100682.18;1752205;81;21235;-58
2022/05/05 10:39:19;;;;;;;6.00;1.90;;;;;;;27.24;17.93;100678.00;1752579;81;21462;-59
2022/05/05 10:41:46;;;;;;;4.23;1.80;;;;;;;27.11;17.81;100686.69;1732913;81;20955;-60
2022/05/05 10:44:23;;;;;;;4.80;1.70;;;;;;;27.04;18.11;100686.19;1751990;81;21900;-60
2022/05/05 10:46:58;;;;;;;3.83;1.70;;;;;;;27.18;17.53;100687.16;1734713;81;21442;-57
2022/05/05 10:49:37;;;;;;;3.77;1.50;;;;;;;27.24;17.62;100690.56;1752267;81;21174;-58
2022/05/05 10:52:18;;;;;;;6.63;1.60;;;;;;;27.40;17.90;100691.47;1736406;81;21541;-62
2022/05/05 10:54:46;;;;;;;;;;;;;;;27.61;17.76;100689.88;1735710;81;21480;-58
2022/05/05 10:57:41;;;;;;;4.70;1.80;;;;;;;27.71;17.66;100692.45;1751527;81;21042;-58
2022/05/05 11:00:22;;;;;;;4.93;1.67;;;;;;;27.95;17.20;100684.93;1752681;81;21843;-59
2022/05/05 11:03:10;;;;;;;7.97;2.23;;;;;;;28.22;17.40;100685.63;1734406;81;22308;-58
2022/05/05 11:05:39;;;;;;;4.53;2.40;;;;;;;28.57;16.71;100673.60;1752012;81;21011;-56
2022/05/05 11:08:19;;;;;;;4.67;2.30;;;;;;;28.48;16.82;100692.22;1751980;81;21014;-57
2022/05/05 11:13:41;;;;;;;7.97;2.27;;;;;;;28.16;16.71;100698.31;1752451;81;20990;-65
2022/05/05 11:22:23;;;;;;;3.33;1.63;;;;;;;27.04;16.52;100699.56;1714611;82;20996;-57
2022/05/05 11:24:50;;;;;;;3.47;2.00;;;;;;;26.68;17.26;100703.89;1714395;82;21040;-56
2022/05/05 11:27:19;;;;;;;3.93;2.03;;;;;;;26.69;16.89;100696.92;1715039;82;21004;-56
2022/05/05 11:29:54;;;;;;;2.33;1.30;;;;;;;26.56;17.28;100706.13;1702724;82;21268;-58
2022/05/05 11:32:30;;;;;;;5.17;1.80;;;;;;;26.78;17.41;100705.67;1714360;82;21004;-57
2022/05/05 11:34:57;;;;;;;4.83;1.70;;;;;;;27.11;16.72;100704.08;1700913;83;21059;-59
2022/05/05 11:37:28;;;;;;;3.93;2.00;;;;;;;26.99;16.30;100700.41;1714709;82;21082;-62
2022/05/05 11:39:55;;;;;;;3.47;1.62;;;;;;;26.87;16.46;100704.01;1714116;82;21519;-64
2022/05/05 11:42:22;;;;;;;4.30;1.73;;;;;;;26.73;16.16;100701.17;1714547;82;21284;-56
2022/05/05 11:44:50;;;;;;;4.83;2.07;;;;;;;26.60;16.55;100704.50;1714135;81;21087;-57
2022/05/05 11:47:20;;;;;;;3.93;2.40;;;;;;;26.42;16.41;100696.56;1714627;82;21604;-59
2022/05/05 11:49:52;;;;;;;3.87;2.27;;;;;;;26.57;16.81;100704.51;1703683;82;21458;-58
2022/05/05 11:52:20;;;;;;;5.80;1.97;;;;;;;26.37;17.22;100700.08;1715204;81;21529;-57
2022/05/05 11:54:53;;;;;;;6.30;2.33;;;;;;;26.48;16.26;100699.50;1714448;82;21880;-56
2022/05/05 11:57:38;;;;;;;4.63;1.80;;;;;;;26.42;16.66;100701.91;1714518;82;21619;-66
2022/05/05 12:02:53;;;;;;;4.40;2.20;;;;;;;26.01;16.66;100718.17;1713651;81;21548;-57
2022/05/05 12:05:21;;;;;;;5.40;2.23;;;;;;;25.91;15.93;100713.70;1714690;82;21871;-58
2022/05/05 12:07:50;;;;;;;5.30;2.10;;;;;;;25.98;16.12;100701.36;1714559;82;22301;-58
2022/05/05 12:10:18;;;;;;;4.17;1.77;;;;;;;26.36;16.26;100713.70;1714744;82;21001;-58
2022/05/05 12:12:48;;;;;;;3.87;1.67;;;;;;;26.38;16.16;100704.34;1702621;82;21103;-65
2022/05/05 12:15:17;;;;;;;4.00;1.93;;;;;;;26.23;16.24;100702.30;1714001;82;21628;-56
2022/05/05 12:17:52;;;;;;;4.27;1.90;;;;;;;26.15;17.04;100712.50;1708532;81;21513;-58
2022/05/05 12:20:20;;;;;;;7.67;2.00;;;;;;;26.29;16.75;100714.03;1742775;81;21076;-57
2022/05/05 12:22:58;;;;;;;11.40;5.67;;;;;;;26.27;16.27;100722.85;1733548;81;21031;-58